OOCL Atlanta — VRAR6 — position and weather

sailwx.info

Track history (hours):
 
Tides and Currents Weather Stations Pressure Air Temp Water Temp Dewpoint Dewpoint Depression Visibility Wind Speed Wind Dir Waves Ship Positions

OOCL Atlanta

Last reported at 2016-Jun-29 18:12 UTC. Time now 2016-Jul-02 07:41 UTC.
Position N 40°20' W 030°33'.

Length 323 m; beam 42.8 m; draft 14.5 m.

Type: Cargo ship. MMSI: 477920300.

Date/timePositionNaut miles runAvg speedWind from/ knotsBaromVisibWave heightAir tempDewpointWater temp
2016-Jun-29 18:12N 40°20' W 030°33'1817.5
2016-Jun-29 17:11N 40°18' W 030°10'1617.4
2016-Jun-29 16:15N 40°16' W 029°49'1217.4
2016-Jun-29 15:34N 40°15' W 029°33'1717.4
2016-Jun-29 14:33N 40°13' W 029°10'1717.1
2016-Jun-29 13:33N 40°11' W 028°48'3417.0
2016-Jun-29 11:32N 40°06' W 028°03'9017.8
2016-Jun-29 06:27N 39°53' W 026°06'5817.5
2016-Jun-29 03:08N 39°44' W 024°52'3317.4
2016-Jun-29 01:14N 39°39' W 024°09'1517.6
2016-Jun-29 00:22N 39°36' W 023°50'1717.5
2016-Jun-28 23:24N 39°33' W 023°28'1517.2
2016-Jun-28 22:31N 39°30' W 023°09'1717.5
2016-Jun-28 21:33N 39°27' W 022°48'1918.4
2016-Jun-28 20:31N 39°23' W 022°23'33318.3
2016-Jun-28 02:23N 37°60' W 015°30'5618.8
2016-Jun-27 23:23N 37°44' W 014°22'5318.6
2016-Jun-27 20:32N 37°28' W 013°19'1717.7
2016-Jun-27 19:33N 37°22' W 012°58'1717.4
2016-Jun-27 18:33N 37°17' W 012°37'1817.7
2016-Jun-27 17:33N 37°11' W 012°16'5317.7
2016-Jun-27 14:33N 36°53' W 011°14'1817.7
2016-Jun-27 13:33N 36°48' W 010°52'1817.9
2016-Jun-27 12:33N 36°42' W 010°31'1818.0
2016-Jun-27 11:33N 36°36' W 010°10'1817.8
2016-Jun-27 10:33N 36°30' W 009°50'1818.1
2016-Jun-27 09:33N 36°23' W 009°28'1918.8
2016-Jun-27 08:33N 36°17' W 009°06'1918.8
2016-Jun-27 07:33N 36°13' W 008°44'1919.1
2016-Jun-27 06:33N 36°11' W 008°20'1919.4
2016-Jun-27 05:33N 36°08' W 007°56'1919.4
2016-Jun-27 04:34N 36°06' W 007°32'2019.6
2016-Jun-27 03:34N 36°04' W 007°08'2019.8
2016-Jun-27 02:33N 36°01' W 006°44'5618.5
2016-Jun-26 23:33N 35°58' W 005°36'1615.7
2016-Jun-26 22:33N 36°01' W 005°17'22218.5
2016-Jun-26 10:32N 36°35' W 000°44'1817.8
2016-Jun-26 09:33N 36°37' W 000°22'1817.8
2016-Jun-26 08:31N 36°40' E 000°00'1818.6
2016-Jun-26 07:33N 36°44' E 000°22'1918.5
2016-Jun-26 06:31N 36°45' E 000°46'1718.0
2016-Jun-26 05:33N 36°48' E 001°07'2017.6
2016-Jun-26 04:24N 36°51' E 001°32'1517.5
2016-Jun-26 03:33N 36°53' E 001°51'2017.4
2016-Jun-26 02:25N 36°56' E 002°15'1617.0
2016-Jun-26 01:29N 36°59' E 002°35'1616.9
2016-Jun-26 00:32N 37°01' E 002°54'2018.7
2016-Jun-25 23:30N 37°04' E 003°19'1818.8
2016-Jun-25 22:33N 37°06' E 003°41'1919.2
2016-Jun-25 21:33N 37°09' E 004°04'1919.5
2016-Jun-25 20:33N 37°12' E 004°29'1919.4
2016-Jun-25 19:33N 37°15' E 004°53'1918.7
2016-Jun-25 18:33N 37°18' E 005°16'2019.8
2016-Jun-25 17:34N 37°21' E 005°40'17318.7
2016-Jun-25 08:18N 37°43' E 009°17'2018.0
2016-Jun-25 07:13N 37°42' E 009°42'1217.9
2016-Jun-25 06:33N 37°41' E 009°57'1818.2
2016-Jun-25 05:33N 37°39' E 010°20'9318.2
2016-Jun-25 00:27N 37°04' E 012°08'1718.6
2016-Jun-24 23:31N 36°58' E 012°28'2119.0
2016-Jun-24 22:25N 36°51' E 012°53'1618.7
2016-Jun-24 21:33N 36°46' E 013°12'1817.6
2016-Jun-24 20:34N 36°41' E 013°33'1717.3
2016-Jun-24 19:33N 36°36' E 013°54'1918.6
2016-Jun-24 18:34N 36°30' E 014°15'1818.0
2016-Jun-24 17:33N 36°25' E 014°37'1817.7
2016-Jun-24 16:33N 36°19' E 014°58'1717.2
2016-Jun-24 15:33N 36°14' E 015°18'69318.1
2016-Jun-23 01:12N 32°40' E 028°37'3619.1
2016-Jun-22 23:18N 32°29' E 029°19'4319.2
2016-Jun-22 21:04N 32°16' E 030°07'1019.3
2016-Jun-22 20:34N 32°13' E 030°18'1919.2
2016-Jun-22 19:34N 32°07' E 030°40'1919.1
2016-Jun-22 18:33N 32°01' E 031°01'1918.7
2016-Jun-22 17:33N 31°56' E 031°22'1918.5
2016-Jun-22 16:33N 31°50' E 031°43'1818.1
2016-Jun-22 15:33N 31°42' E 032°02'2219.0
2016-Jun-22 14:24N 31°28' E 032°22'1315.8
2016-Jun-22 13:34N 31°14' E 032°21'8 8.4
2016-Jun-22 12:34N 31°06' E 032°19'9 9.0
2016-Jun-22 11:32N 30°57' E 032°19'40 8.0
2016-Jun-22 06:33N 30°18' E 032°26'  
Track history (hours):
 
Tides and Currents Weather Stations Pressure Air Temp Water Temp Dewpoint Dewpoint Depression Visibility Wind Speed Wind Dir Waves Ship Positions

OOCL Atlanta

Last reported at 2016-Jun-29 18:12 UTC. Time now 2016-Jul-02 07:41 UTC.
Position N 40°20' W 030°33'.

Length 323 m; beam 42.8 m; draft 14.5 m.

Type: Cargo ship. MMSI: 477920300.

Date/timePositionNaut miles runAvg speedWind from/ knotsBaromVisibWave heightAir tempDewpointWater temp
2016-Jun-29 18:12N 40°20' W 030°33'1817.5
2016-Jun-29 17:11N 40°18' W 030°10'1617.4
2016-Jun-29 16:15N 40°16' W 029°49'1217.4
2016-Jun-29 15:34N 40°15' W 029°33'1717.4
2016-Jun-29 14:33N 40°13' W 029°10'1717.1
2016-Jun-29 13:33N 40°11' W 028°48'3417.0
2016-Jun-29 11:32N 40°06' W 028°03'9017.8
2016-Jun-29 06:27N 39°53' W 026°06'5817.5
2016-Jun-29 03:08N 39°44' W 024°52'3317.4
2016-Jun-29 01:14N 39°39' W 024°09'1517.6
2016-Jun-29 00:22N 39°36' W 023°50'1717.5
2016-Jun-28 23:24N 39°33' W 023°28'1517.2
2016-Jun-28 22:31N 39°30' W 023°09'1717.5
2016-Jun-28 21:33N 39°27' W 022°48'1918.4
2016-Jun-28 20:31N 39°23' W 022°23'33318.3
2016-Jun-28 02:23N 37°60' W 015°30'5618.8
2016-Jun-27 23:23N 37°44' W 014°22'5318.6
2016-Jun-27 20:32N 37°28' W 013°19'1717.7
2016-Jun-27 19:33N 37°22' W 012°58'1717.4
2016-Jun-27 18:33N 37°17' W 012°37'1817.7
2016-Jun-27 17:33N 37°11' W 012°16'5317.7
2016-Jun-27 14:33N 36°53' W 011°14'1817.7
2016-Jun-27 13:33N 36°48' W 010°52'1817.9
2016-Jun-27 12:33N 36°42' W 010°31'1818.0
2016-Jun-27 11:33N 36°36' W 010°10'1817.8
2016-Jun-27 10:33N 36°30' W 009°50'1818.1
2016-Jun-27 09:33N 36°23' W 009°28'1918.8
2016-Jun-27 08:33N 36°17' W 009°06'1918.8
2016-Jun-27 07:33N 36°13' W 008°44'1919.1
2016-Jun-27 06:33N 36°11' W 008°20'1919.4
2016-Jun-27 05:33N 36°08' W 007°56'1919.4
2016-Jun-27 04:34N 36°06' W 007°32'2019.6
2016-Jun-27 03:34N 36°04' W 007°08'2019.8
2016-Jun-27 02:33N 36°01' W 006°44'5618.5
2016-Jun-26 23:33N 35°58' W 005°36'1615.7
2016-Jun-26 22:33N 36°01' W 005°17'22218.5
2016-Jun-26 10:32N 36°35' W 000°44'1817.8
2016-Jun-26 09:33N 36°37' W 000°22'1817.8
2016-Jun-26 08:31N 36°40' E 000°00'1818.6
2016-Jun-26 07:33N 36°44' E 000°22'1918.5
2016-Jun-26 06:31N 36°45' E 000°46'1718.0
2016-Jun-26 05:33N 36°48' E 001°07'2017.6
2016-Jun-26 04:24N 36°51' E 001°32'1517.5
2016-Jun-26 03:33N 36°53' E 001°51'2017.4
2016-Jun-26 02:25N 36°56' E 002°15'1617.0
2016-Jun-26 01:29N 36°59' E 002°35'1616.9
2016-Jun-26 00:32N 37°01' E 002°54'2018.7
2016-Jun-25 23:30N 37°04' E 003°19'1818.8
2016-Jun-25 22:33N 37°06' E 003°41'1919.2
2016-Jun-25 21:33N 37°09' E 004°04'1919.5
2016-Jun-25 20:33N 37°12' E 004°29'1919.4
2016-Jun-25 19:33N 37°15' E 004°53'1918.7
2016-Jun-25 18:33N 37°18' E 005°16'2019.8
2016-Jun-25 17:34N 37°21' E 005°40'17318.7
2016-Jun-25 08:18N 37°43' E 009°17'2018.0
2016-Jun-25 07:13N 37°42' E 009°42'1217.9
2016-Jun-25 06:33N 37°41' E 009°57'1818.2
2016-Jun-25 05:33N 37°39' E 010°20'9318.2
2016-Jun-25 00:27N 37°04' E 012°08'1718.6
2016-Jun-24 23:31N 36°58' E 012°28'2119.0
2016-Jun-24 22:25N 36°51' E 012°53'1618.7
2016-Jun-24 21:33N 36°46' E 013°12'1817.6
2016-Jun-24 20:34N 36°41' E 013°33'1717.3
2016-Jun-24 19:33N 36°36' E 013°54'1918.6
2016-Jun-24 18:34N 36°30' E 014°15'1818.0
2016-Jun-24 17:33N 36°25' E 014°37'1817.7
2016-Jun-24 16:33N 36°19' E 014°58'1717.2
2016-Jun-24 15:33N 36°14' E 015°18'69318.1
2016-Jun-23 01:12N 32°40' E 028°37'3619.1
2016-Jun-22 23:18N 32°29' E 029°19'4319.2
2016-Jun-22 21:04N 32°16' E 030°07'1019.3
2016-Jun-22 20:34N 32°13' E 030°18'1919.2
2016-Jun-22 19:34N 32°07' E 030°40'1919.1
2016-Jun-22 18:33N 32°01' E 031°01'1918.7
2016-Jun-22 17:33N 31°56' E 031°22'1918.5
2016-Jun-22 16:33N 31°50' E 031°43'1818.1
2016-Jun-22 15:33N 31°42' E 032°02'2219.0
2016-Jun-22 14:24N 31°28' E 032°22'1315.8
2016-Jun-22 13:34N 31°14' E 032°21'8 8.4
2016-Jun-22 12:34N 31°06' E 032°19'9 9.0
2016-Jun-22 11:32N 30°57' E 032°19'40 8.0
2016-Jun-22 06:33N 30°18' E 032°26'  

Dump ship's entire track history